KTULTNCM

Guest
Details From KTUL - Tulsa Intl
To TNCM - St Maarten - Princess Juliana Intl
Flight Number -
Tags Decoded
Created
Modified
Stats Distance 2,240 nm / 4,149 km
Max Altitude 0 ft / 0 m
Waypoints 4
Social Downloads 1
Likes 0
Share VATSIM

Download

Looking for another format? Having issues loading an existing format? Contact us
Advertisement - Login to hide

Notes

Decoded

Route

KTUL KDFW KMIA TNCM

ID Type Via Altitude Latitude Longitude Leg Dist Tot Dist Heading (true) Name
O KTUL APT - 0 ft / 0 m 36.19541˚ -95.89902˚ - 0 nm - -
KDFW APT - 0 ft / 0 m 32.91257˚ -97.02148˚ 204 nm 204 nm 196° / 195° -
KMIA APT - 0 ft / 0 m 25.80290˚ -80.30154˚ 972 nm 1176 nm 112° / 120° -
O TNCM APT - 0 ft / 0 m 18.03937˚ -63.11961˚ 1063 nm 2240 nm 113° / 119° -

Altitude Profile

Advertisement - Login to hide

Weather


0- 5 10 15 20 25 30 35+ Temperature / ° C

Clouds and Precipitation
Forecast for 2017-12-19 00:00 UTC. Updated an hour ago

Ground ~20,000 ft ~40,000 ft Winds

KTUL

Details ICAO KTUL (TUL)
Name Tulsa Intl
Region United States
Timezone America/Chicago (UTC-6.0)
Stats Elevation 677 ft / 206 m (AMSL)
Location 36.198199° -95.889458°
Runways 3
Magnetic Variation 2.664° E

METAR

KTUL 182014Z 21006KT 9SM SCT015 10/06 A3012 RMK AO2 T01000061

Decode

TAF

KTUL 181742Z 1818/1918 19008KT P6SM BKN010 FM181900 20008KT P6SM SKC FM190100 17004KT P6SM SCT012 FM190300 18005KT 5SM BR BKN010 FM190600 18006KT 1SM BR OVC007 FM191500 19003KT 3SM BR OVC008

Decode

Departure Runways

ID Width Length Bearing (true) Bearing (mag) Surface Threshold Offset Overrun Length
08 151 ft / 46 m 7,361 ft / 2,244 m 89.42° 86.76° Concrete 167 ft / 51 m 177 ft / 54 m
18L 200 ft / 61 m 10,023 ft / 3,055 m 183.02° 180.36° Concrete 190 ft / 58 m 400 ft / 122 m
18R 151 ft / 46 m 6,116 ft / 1,864 m 183.07° 180.41° Asphalt 180 ft / 55 m 0 ft / 0 m
26 151 ft / 46 m 7,361 ft / 2,244 m 269.44° 266.78° Concrete 171 ft / 52 m 0 ft / 0 m
36L 151 ft / 46 m 6,116 ft / 1,864 m 3.07° 0.41° Asphalt 164 ft / 50 m 0 ft / 0 m
36R 200 ft / 61 m 10,023 ft / 3,055 m 3.02° 0.36° Concrete 174 ft / 53 m 400 ft / 122 m

TNCM

Details ICAO TNCM (SXM)
Name St Maarten - Princess Juliana Intl
Region Caribbean Netherlands, Aruba, Curaçao, Sint Maarten
Timezone Unknown (UTC+0.0)
Stats Elevation 12 ft / 4 m (AMSL)
Location 18.040889° -63.108974°
Runways 1
Magnetic Variation 14.325° W

METAR

TNCM 182000Z 06011KT 030V100 9999 VCSH SCT017 27/22 Q1016 A3000 NOSIG

Decode

TAF

TAF TNCM 181720Z 1818/1918 08015KT P6SM VCSH SCT022 FM182300 07010KT P6SM FEW018

Decode

Destination Runways

ID Width Length Bearing (true) Bearing (mag) Surface Threshold Offset Overrun Length
10 148 ft / 45 m 7,464 ft / 2,275 m 81.43° 95.76° Asphalt 0 ft / 0 m 151 ft / 46 m
28 148 ft / 45 m 7,464 ft / 2,275 m 261.44° 275.77° Asphalt 397 ft / 121 m 0 ft / 0 m

Popular Alternatives